sensor_id;sensor_type;location;lat;lon;timestamp;P1;durP1;ratioP1;P2;durP2;ratioP2
37231;SDS011;23125;48.156;15.954;2023-05-07T00:00:46;1.45;;;1.10;;
37231;SDS011;23125;48.156;15.954;2023-05-07T00:03:12;1.05;;;0.95;;
37231;SDS011;23125;48.156;15.954;2023-05-07T00:05:39;1.55;;;1.20;;
37231;SDS011;23125;48.156;15.954;2023-05-07T00:08:05;2.42;;;1.10;;
37231;SDS011;23125;48.156;15.954;2023-05-07T00:10:30;2.35;;;1.13;;
37231;SDS011;23125;48.156;15.954;2023-05-07T00:12:56;1.30;;;0.93;;
37231;SDS011;23125;48.156;15.954;2023-05-07T00:15:22;1.48;;;1.00;;
37231;SDS011;23125;48.156;15.954;2023-05-07T00:17:48;1.20;;;0.80;;
37231;SDS011;23125;48.156;15.954;2023-05-07T00:20:14;2.70;;;0.90;;
37231;SDS011;23125;48.156;15.954;2023-05-07T00:22:40;1.42;;;0.90;;
37231;SDS011;23125;48.156;15.954;2023-05-07T00:25:06;1.17;;;1.00;;
37231;SDS011;23125;48.156;15.954;2023-05-07T00:27:33;1.05;;;0.90;;
37231;SDS011;23125;48.156;15.954;2023-05-07T00:29:59;1.30;;;1.05;;
37231;SDS011;23125;48.156;15.954;2023-05-07T00:32:25;2.63;;;1.20;;
37231;SDS011;23125;48.156;15.954;2023-05-07T00:34:51;1.50;;;1.10;;
37231;SDS011;23125;48.156;15.954;2023-05-07T00:37:17;1.60;;;1.08;;
37231;SDS011;23125;48.156;15.954;2023-05-07T00:39:42;1.45;;;1.02;;
37231;SDS011;23125;48.156;15.954;2023-05-07T00:42:08;3.05;;;1.13;;
37231;SDS011;23125;48.156;15.954;2023-05-07T00:44:35;1.30;;;1.00;;
37231;SDS011;23125;48.156;15.954;2023-05-07T00:47:02;1.30;;;1.05;;
37231;SDS011;23125;48.156;15.954;2023-05-07T00:49:39;2.10;;;1.00;;
37231;SDS011;23125;48.156;15.954;2023-05-07T00:52:13;1.50;;;1.17;;
37231;SDS011;23125;48.156;15.954;2023-05-07T00:54:40;1.15;;;1.02;;
37231;SDS011;23125;48.156;15.954;2023-05-07T00:57:08;2.28;;;1.08;;
37231;SDS011;23125;48.156;15.954;2023-05-07T00:59:36;1.70;;;0.90;;
37231;SDS011;23125;48.156;15.954;2023-05-07T01:02:03;1.95;;;1.05;;
37231;SDS011;23125;48.156;15.954;2023-05-07T01:04:29;1.10;;;1.00;;
37231;SDS011;23125;48.156;15.954;2023-05-07T01:06:55;1.50;;;1.00;;
37231;SDS011;23125;48.156;15.954;2023-05-07T01:09:23;0.98;;;0.88;;
37231;SDS011;23125;48.156;15.954;2023-05-07T01:11:51;1.38;;;0.90;;
37231;SDS011;23125;48.156;15.954;2023-05-07T01:14:18;5.47;;;0.90;;
37231;SDS011;23125;48.156;15.954;2023-05-07T01:16:46;2.78;;;0.90;;
37231;SDS011;23125;48.156;15.954;2023-05-07T01:19:12;2.45;;;0.98;;
37231;SDS011;23125;48.156;15.954;2023-05-07T01:21:46;2.05;;;0.80;;
37231;SDS011;23125;48.156;15.954;2023-05-07T01:24:14;2.83;;;1.10;;
37231;SDS011;23125;48.156;15.954;2023-05-07T01:26:42;0.82;;;0.70;;
37231;SDS011;23125;48.156;15.954;2023-05-07T01:29:09;1.42;;;0.90;;
37231;SDS011;23125;48.156;15.954;2023-05-07T01:31:35;1.90;;;1.17;;
37231;SDS011;23125;48.156;15.954;2023-05-07T01:34:03;1.17;;;0.77;;
37231;SDS011;23125;48.156;15.954;2023-05-07T01:36:30;1.20;;;0.82;;
37231;SDS011;23125;48.156;15.954;2023-05-07T01:38:57;1.50;;;1.02;;
37231;SDS011;23125;48.156;15.954;2023-05-07T01:41:25;1.52;;;1.00;;
37231;SDS011;23125;48.156;15.954;2023-05-07T01:43:51;1.85;;;1.10;;
37231;SDS011;23125;48.156;15.954;2023-05-07T01:46:19;1.67;;;1.10;;
37231;SDS011;23125;48.156;15.954;2023-05-07T01:48:46;1.52;;;1.05;;
37231;SDS011;23125;48.156;15.954;2023-05-07T01:51:12;3.70;;;1.23;;
37231;SDS011;23125;48.156;15.954;2023-05-07T01:53:38;2.35;;;1.00;;
37231;SDS011;23125;48.156;15.954;2023-05-07T01:56:06;2.08;;;0.93;;
37231;SDS011;23125;48.156;15.954;2023-05-07T01:58:32;1.20;;;0.90;;
37231;SDS011;23125;48.156;15.954;2023-05-07T02:00:59;1.48;;;1.10;;
37231;SDS011;23125;48.156;15.954;2023-05-07T02:03:24;2.97;;;1.00;;
37231;SDS011;23125;48.156;15.954;2023-05-07T02:05:50;2.45;;;1.10;;
37231;SDS011;23125;48.156;15.954;2023-05-07T02:08:16;1.67;;;0.85;;
37231;SDS011;23125;48.156;15.954;2023-05-07T02:10:42;2.58;;;0.95;;
37231;SDS011;23125;48.156;15.954;2023-05-07T02:13:08;1.80;;;1.00;;
37231;SDS011;23125;48.156;15.954;2023-05-07T02:15:34;2.25;;;1.10;;
37231;SDS011;23125;48.156;15.954;2023-05-07T02:18:01;1.33;;;1.02;;
37231;SDS011;23125;48.156;15.954;2023-05-07T02:20:29;1.75;;;1.05;;
37231;SDS011;23125;48.156;15.954;2023-05-07T02:22:55;0.85;;;0.70;;
37231;SDS011;23125;48.156;15.954;2023-05-07T02:25:21;1.33;;;0.90;;
37231;SDS011;23125;48.156;15.954;2023-05-07T02:27:47;1.10;;;0.93;;
37231;SDS011;23125;48.156;15.954;2023-05-07T02:30:13;1.00;;;0.70;;
37231;SDS011;23125;48.156;15.954;2023-05-07T02:32:40;1.58;;;0.90;;
37231;SDS011;23125;48.156;15.954;2023-05-07T02:35:05;1.70;;;1.10;;
37231;SDS011;23125;48.156;15.954;2023-05-07T02:37:32;2.22;;;1.20;;
37231;SDS011;23125;48.156;15.954;2023-05-07T02:39:57;1.52;;;1.10;;
37231;SDS011;23125;48.156;15.954;2023-05-07T02:42:23;1.40;;;1.10;;
37231;SDS011;23125;48.156;15.954;2023-05-07T02:44:49;1.75;;;1.30;;
37231;SDS011;23125;48.156;15.954;2023-05-07T02:47:15;1.90;;;1.50;;
37231;SDS011;23125;48.156;15.954;2023-05-07T02:49:41;1.75;;;1.50;;
37231;SDS011;23125;48.156;15.954;2023-05-07T02:52:07;2.88;;;1.38;;
37231;SDS011;23125;48.156;15.954;2023-05-07T02:54:33;1.90;;;1.20;;
37231;SDS011;23125;48.156;15.954;2023-05-07T02:56:59;2.97;;;1.17;;
37231;SDS011;23125;48.156;15.954;2023-05-07T02:59:26;4.05;;;1.50;;
37231;SDS011;23125;48.156;15.954;2023-05-07T03:01:52;1.13;;;0.80;;
37231;SDS011;23125;48.156;15.954;2023-05-07T03:04:18;1.55;;;1.00;;
37231;SDS011;23125;48.156;15.954;2023-05-07T03:06:43;1.75;;;1.20;;
37231;SDS011;23125;48.156;15.954;2023-05-07T03:09:10;2.78;;;0.93;;
37231;SDS011;23125;48.156;15.954;2023-05-07T03:11:36;1.70;;;1.20;;
37231;SDS011;23125;48.156;15.954;2023-05-07T03:14:02;2.47;;;1.13;;
37231;SDS011;23125;48.156;15.954;2023-05-07T03:16:28;1.50;;;1.25;;
37231;SDS011;23125;48.156;15.954;2023-05-07T03:18:54;1.30;;;1.05;;
37231;SDS011;23125;48.156;15.954;2023-05-07T03:21:19;1.98;;;1.08;;
37231;SDS011;23125;48.156;15.954;2023-05-07T03:23:45;1.85;;;1.25;;
37231;SDS011;23125;48.156;15.954;2023-05-07T03:26:11;2.28;;;1.02;;
37231;SDS011;23125;48.156;15.954;2023-05-07T03:28:37;2.13;;;1.38;;
37231;SDS011;23125;48.156;15.954;2023-05-07T03:31:03;2.55;;;2.20;;
37231;SDS011;23125;48.156;15.954;2023-05-07T03:33:29;3.28;;;1.40;;
37231;SDS011;23125;48.156;15.954;2023-05-07T03:35:55;3.00;;;1.38;;
37231;SDS011;23125;48.156;15.954;2023-05-07T03:38:21;2.67;;;1.63;;
37231;SDS011;23125;48.156;15.954;2023-05-07T03:40:50;2.42;;;1.60;;
37231;SDS011;23125;48.156;15.954;2023-05-07T03:43:16;2.45;;;1.73;;
37231;SDS011;23125;48.156;15.954;2023-05-07T03:45:42;2.63;;;1.65;;
37231;SDS011;23125;48.156;15.954;2023-05-07T03:48:07;2.65;;;1.58;;
37231;SDS011;23125;48.156;15.954;2023-05-07T03:50:33;4.63;;;2.38;;
37231;SDS011;23125;48.156;15.954;2023-05-07T03:52:59;2.63;;;1.73;;
37231;SDS011;23125;48.156;15.954;2023-05-07T03:55:25;2.38;;;1.40;;
37231;SDS011;23125;48.156;15.954;2023-05-07T03:57:52;2.00;;;1.52;;
37231;SDS011;23125;48.156;15.954;2023-05-07T04:00:18;1.98;;;1.70;;
37231;SDS011;23125;48.156;15.954;2023-05-07T04:02:45;1.75;;;1.42;;
37231;SDS011;23125;48.156;15.954;2023-05-07T04:05:10;2.67;;;1.48;;
37231;SDS011;23125;48.156;15.954;2023-05-07T04:07:40;3.13;;;1.27;;
37231;SDS011;23125;48.156;15.954;2023-05-07T04:10:06;2.33;;;1.42;;
37231;SDS011;23125;48.156;15.954;2023-05-07T04:12:32;1.88;;;1.48;;
37231;SDS011;23125;48.156;15.954;2023-05-07T04:14:58;3.22;;;1.25;;
37231;SDS011;23125;48.156;15.954;2023-05-07T04:17:24;2.63;;;1.25;;
37231;SDS011;23125;48.156;15.954;2023-05-07T04:19:50;5.68;;;1.60;;
37231;SDS011;23125;48.156;15.954;2023-05-07T04:22:16;3.08;;;1.38;;
37231;SDS011;23125;48.156;15.954;2023-05-07T04:24:42;3.40;;;1.70;;
37231;SDS011;23125;48.156;15.954;2023-05-07T04:27:08;2.03;;;1.33;;
37231;SDS011;23125;48.156;15.954;2023-05-07T04:29:33;3.10;;;1.70;;
37231;SDS011;23125;48.156;15.954;2023-05-07T04:32:00;3.55;;;2.50;;
37231;SDS011;23125;48.156;15.954;2023-05-07T04:34:26;3.70;;;2.00;;
37231;SDS011;23125;48.156;15.954;2023-05-07T04:36:52;3.50;;;2.03;;
37231;SDS011;23125;48.156;15.954;2023-05-07T04:39:18;3.53;;;1.88;;
37231;SDS011;23125;48.156;15.954;2023-05-07T04:41:44;1.98;;;1.67;;
37231;SDS011;23125;48.156;15.954;2023-05-07T04:44:10;3.20;;;1.90;;
37231;SDS011;23125;48.156;15.954;2023-05-07T04:46:36;5.28;;;2.40;;
37231;SDS011;23125;48.156;15.954;2023-05-07T04:49:02;2.63;;;1.88;;
37231;SDS011;23125;48.156;15.954;2023-05-07T04:51:28;2.65;;;2.17;;
37231;SDS011;23125;48.156;15.954;2023-05-07T04:53:58;2.10;;;1.90;;
37231;SDS011;23125;48.156;15.954;2023-05-07T04:56:23;2.25;;;1.70;;
37231;SDS011;23125;48.156;15.954;2023-05-07T04:58:52;3.55;;;2.50;;
37231;SDS011;23125;48.156;15.954;2023-05-07T05:01:18;2.80;;;2.25;;
37231;SDS011;23125;48.156;15.954;2023-05-07T05:03:44;3.00;;;2.30;;
37231;SDS011;23125;48.156;15.954;2023-05-07T05:06:10;4.13;;;2.60;;
37231;SDS011;23125;48.156;15.954;2023-05-07T05:08:36;3.78;;;2.28;;
37231;SDS011;23125;48.156;15.954;2023-05-07T05:11:01;3.28;;;2.47;;
37231;SDS011;23125;48.156;15.954;2023-05-07T05:13:27;4.78;;;2.55;;
37231;SDS011;23125;48.156;15.954;2023-05-07T05:15:53;3.35;;;2.38;;
37231;SDS011;23125;48.156;15.954;2023-05-07T05:18:19;4.72;;;2.72;;
37231;SDS011;23125;48.156;15.954;2023-05-07T05:20:46;3.90;;;2.90;;
37231;SDS011;23125;48.156;15.954;2023-05-07T05:23:11;3.53;;;2.90;;
37231;SDS011;23125;48.156;15.954;2023-05-07T05:25:37;5.07;;;2.97;;
37231;SDS011;23125;48.156;15.954;2023-05-07T05:28:04;4.22;;;3.25;;
37231;SDS011;23125;48.156;15.954;2023-05-07T05:30:31;3.13;;;2.80;;
37231;SDS011;23125;48.156;15.954;2023-05-07T05:32:56;5.53;;;3.42;;
37231;SDS011;23125;48.156;15.954;2023-05-07T05:35:22;3.95;;;3.40;;
37231;SDS011;23125;48.156;15.954;2023-05-07T05:37:48;4.57;;;3.67;;
37231;SDS011;23125;48.156;15.954;2023-05-07T05:40:14;6.97;;;5.20;;
37231;SDS011;23125;48.156;15.954;2023-05-07T05:42:40;8.38;;;5.68;;
37231;SDS011;23125;48.156;15.954;2023-05-07T05:45:06;9.38;;;8.02;;
37231;SDS011;23125;48.156;15.954;2023-05-07T05:47:33;8.38;;;6.30;;
37231;SDS011;23125;48.156;15.954;2023-05-07T05:49:59;9.20;;;5.47;;
37231;SDS011;23125;48.156;15.954;2023-05-07T05:52:24;8.85;;;5.47;;
37231;SDS011;23125;48.156;15.954;2023-05-07T05:54:50;7.82;;;5.90;;
37231;SDS011;23125;48.156;15.954;2023-05-07T05:57:16;6.65;;;4.45;;
37231;SDS011;23125;48.156;15.954;2023-05-07T05:59:42;6.63;;;5.53;;
37231;SDS011;23125;48.156;15.954;2023-05-07T06:02:09;8.80;;;6.07;;
37231;SDS011;23125;48.156;15.954;2023-05-07T06:04:34;8.50;;;5.57;;
37231;SDS011;23125;48.156;15.954;2023-05-07T06:07:00;5.97;;;5.07;;
37231;SDS011;23125;48.156;15.954;2023-05-07T06:09:26;7.22;;;5.45;;
37231;SDS011;23125;48.156;15.954;2023-05-07T06:11:52;7.55;;;5.03;;
37231;SDS011;23125;48.156;15.954;2023-05-07T06:14:18;7.85;;;5.68;;
37231;SDS011;23125;48.156;15.954;2023-05-07T06:16:44;7.57;;;6.45;;
37231;SDS011;23125;48.156;15.954;2023-05-07T06:19:09;9.77;;;7.25;;
37231;SDS011;23125;48.156;15.954;2023-05-07T06:21:35;9.77;;;8.60;;
37231;SDS011;23125;48.156;15.954;2023-05-07T06:24:01;12.55;;;9.05;;
37231;SDS011;23125;48.156;15.954;2023-05-07T06:26:27;12.98;;;9.73;;
37231;SDS011;23125;48.156;15.954;2023-05-07T06:28:53;11.77;;;9.13;;
37231;SDS011;23125;48.156;15.954;2023-05-07T06:31:19;13.30;;;9.10;;
37231;SDS011;23125;48.156;15.954;2023-05-07T06:33:45;11.60;;;9.00;;
37231;SDS011;23125;48.156;15.954;2023-05-07T06:36:12;14.27;;;10.65;;
37231;SDS011;23125;48.156;15.954;2023-05-07T06:38:38;13.80;;;10.18;;
37231;SDS011;23125;48.156;15.954;2023-05-07T06:41:05;13.15;;;10.00;;
37231;SDS011;23125;48.156;15.954;2023-05-07T06:43:32;15.38;;;10.55;;
37231;SDS011;23125;48.156;15.954;2023-05-07T06:45:58;12.00;;;9.90;;
37231;SDS011;23125;48.156;15.954;2023-05-07T06:48:24;15.43;;;10.98;;
37231;SDS011;23125;48.156;15.954;2023-05-07T06:50:50;11.77;;;9.73;;
37231;SDS011;23125;48.156;15.954;2023-05-07T06:53:16;15.02;;;10.27;;
37231;SDS011;23125;48.156;15.954;2023-05-07T06:55:42;14.10;;;10.30;;
37231;SDS011;23125;48.156;15.954;2023-05-07T06:58:07;13.93;;;10.18;;
37231;SDS011;23125;48.156;15.954;2023-05-07T07:00:33;12.38;;;10.00;;
37231;SDS011;23125;48.156;15.954;2023-05-07T07:03:00;15.82;;;10.88;;
37231;SDS011;23125;48.156;15.954;2023-05-07T07:05:26;15.77;;;11.43;;
37231;SDS011;23125;48.156;15.954;2023-05-07T07:07:52;15.63;;;12.27;;
37231;SDS011;23125;48.156;15.954;2023-05-07T07:10:18;14.80;;;11.45;;
37231;SDS011;23125;48.156;15.954;2023-05-07T07:12:45;15.82;;;11.88;;
37231;SDS011;23125;48.156;15.954;2023-05-07T07:15:11;13.45;;;11.07;;
37231;SDS011;23125;48.156;15.954;2023-05-07T07:17:38;15.43;;;11.43;;
37231;SDS011;23125;48.156;15.954;2023-05-07T07:20:04;15.30;;;11.15;;
37231;SDS011;23125;48.156;15.954;2023-05-07T07:22:31;16.48;;;12.27;;
37231;SDS011;23125;48.156;15.954;2023-05-07T07:24:57;16.30;;;12.45;;
37231;SDS011;23125;48.156;15.954;2023-05-07T07:27:22;15.25;;;11.63;;
37231;SDS011;23125;48.156;15.954;2023-05-07T07:29:49;16.48;;;12.40;;
37231;SDS011;23125;48.156;15.954;2023-05-07T07:32:15;18.77;;;14.00;;
37231;SDS011;23125;48.156;15.954;2023-05-07T07:34:41;18.40;;;12.70;;
37231;SDS011;23125;48.156;15.954;2023-05-07T07:37:06;18.27;;;14.25;;
37231;SDS011;23125;48.156;15.954;2023-05-07T07:39:33;20.10;;;14.52;;
37231;SDS011;23125;48.156;15.954;2023-05-07T07:41:59;18.00;;;13.35;;
37231;SDS011;23125;48.156;15.954;2023-05-07T07:44:25;19.83;;;13.95;;
37231;SDS011;23125;48.156;15.954;2023-05-07T07:46:53;19.30;;;14.52;;
37231;SDS011;23125;48.156;15.954;2023-05-07T07:49:19;19.77;;;14.70;;
37231;SDS011;23125;48.156;15.954;2023-05-07T07:51:45;19.52;;;14.18;;
37231;SDS011;23125;48.156;15.954;2023-05-07T07:54:11;17.63;;;13.38;;
37231;SDS011;23125;48.156;15.954;2023-05-07T07:56:37;17.33;;;13.93;;
37231;SDS011;23125;48.156;15.954;2023-05-07T07:59:03;15.23;;;11.25;;
37231;SDS011;23125;48.156;15.954;2023-05-07T08:01:29;17.48;;;12.20;;
37231;SDS011;23125;48.156;15.954;2023-05-07T08:03:56;15.85;;;12.52;;
37231;SDS011;23125;48.156;15.954;2023-05-07T08:06:25;18.13;;;12.63;;
37231;SDS011;23125;48.156;15.954;2023-05-07T08:08:52;14.50;;;11.40;;
37231;SDS011;23125;48.156;15.954;2023-05-07T08:11:18;14.40;;;11.25;;
37231;SDS011;23125;48.156;15.954;2023-05-07T08:13:43;14.13;;;11.23;;
37231;SDS011;23125;48.156;15.954;2023-05-07T08:16:10;14.88;;;11.65;;
37231;SDS011;23125;48.156;15.954;2023-05-07T08:18:36;13.90;;;11.45;;
37231;SDS011;23125;48.156;15.954;2023-05-07T08:21:02;15.75;;;11.55;;
37231;SDS011;23125;48.156;15.954;2023-05-07T08:23:28;13.82;;;11.80;;
37231;SDS011;23125;48.156;15.954;2023-05-07T08:25:54;16.48;;;12.45;;
37231;SDS011;23125;48.156;15.954;2023-05-07T08:28:20;13.70;;;11.60;;
37231;SDS011;23125;48.156;15.954;2023-05-07T08:30:46;15.10;;;12.07;;
37231;SDS011;23125;48.156;15.954;2023-05-07T08:33:12;14.65;;;11.90;;
37231;SDS011;23125;48.156;15.954;2023-05-07T08:35:38;16.77;;;12.75;;
37231;SDS011;23125;48.156;15.954;2023-05-07T08:38:04;14.90;;;11.38;;
37231;SDS011;23125;48.156;15.954;2023-05-07T08:40:30;16.23;;;12.02;;
37231;SDS011;23125;48.156;15.954;2023-05-07T08:43:02;14.10;;;11.57;;
37231;SDS011;23125;48.156;15.954;2023-05-07T08:45:30;14.07;;;11.48;;
37231;SDS011;23125;48.156;15.954;2023-05-07T08:48:18;14.35;;;11.25;;
37231;SDS011;23125;48.156;15.954;2023-05-07T08:50:46;13.30;;;10.95;;
37231;SDS011;23125;48.156;15.954;2023-05-07T08:53:12;14.43;;;10.95;;
37231;SDS011;23125;48.156;15.954;2023-05-07T08:55:38;14.05;;;11.27;;
37231;SDS011;23125;48.156;15.954;2023-05-07T08:58:05;12.45;;;10.40;;
37231;SDS011;23125;48.156;15.954;2023-05-07T09:00:31;14.02;;;11.82;;
37231;SDS011;23125;48.156;15.954;2023-05-07T09:02:57;14.60;;;11.15;;
37231;SDS011;23125;48.156;15.954;2023-05-07T09:05:23;15.25;;;11.55;;
37231;SDS011;23125;48.156;15.954;2023-05-07T09:07:49;14.98;;;11.52;;
37231;SDS011;23125;48.156;15.954;2023-05-07T09:10:15;13.15;;;10.80;;
37231;SDS011;23125;48.156;15.954;2023-05-07T09:12:41;15.40;;;11.25;;
37231;SDS011;23125;48.156;15.954;2023-05-07T09:15:07;13.50;;;10.80;;
37231;SDS011;23125;48.156;15.954;2023-05-07T09:17:34;14.50;;;11.10;;
37231;SDS011;23125;48.156;15.954;2023-05-07T09:20:03;14.77;;;11.77;;
37231;SDS011;23125;48.156;15.954;2023-05-07T09:22:33;16.70;;;12.50;;
37231;SDS011;23125;48.156;15.954;2023-05-07T09:25:03;12.25;;;10.40;;
37231;SDS011;23125;48.156;15.954;2023-05-07T09:27:31;13.00;;;10.30;;
37231;SDS011;23125;48.156;15.954;2023-05-07T09:29:57;11.00;;;9.57;;
37231;SDS011;23125;48.156;15.954;2023-05-07T09:32:23;14.88;;;11.77;;
37231;SDS011;23125;48.156;15.954;2023-05-07T09:37:18;16.33;;;12.82;;
37231;SDS011;23125;48.156;15.954;2023-05-07T09:39:44;14.18;;;12.05;;
37231;SDS011;23125;48.156;15.954;2023-05-07T09:42:12;15.85;;;12.35;;
37231;SDS011;23125;48.156;15.954;2023-05-07T09:44:40;14.52;;;11.93;;
37231;SDS011;23125;48.156;15.954;2023-05-07T09:47:08;14.27;;;12.43;;
37231;SDS011;23125;48.156;15.954;2023-05-07T09:49:36;13.77;;;11.85;;
37231;SDS011;23125;48.156;15.954;2023-05-07T09:52:07;13.52;;;12.02;;
37231;SDS011;23125;48.156;15.954;2023-05-07T09:54:35;13.15;;;10.75;;
37231;SDS011;23125;48.156;15.954;2023-05-07T09:57:05;12.73;;;10.95;;
37231;SDS011;23125;48.156;15.954;2023-05-07T09:59:32;13.70;;;11.15;;
37231;SDS011;23125;48.156;15.954;2023-05-07T10:02:00;12.68;;;10.82;;
37231;SDS011;23125;48.156;15.954;2023-05-07T10:04:28;12.43;;;11.13;;
37231;SDS011;23125;48.156;15.954;2023-05-07T10:06:55;15.68;;;12.05;;
37231;SDS011;23125;48.156;15.954;2023-05-07T10:09:23;14.13;;;11.80;;
37231;SDS011;23125;48.156;15.954;2023-05-07T10:11:50;14.55;;;11.60;;
37231;SDS011;23125;48.156;15.954;2023-05-07T10:14:16;14.38;;;11.05;;
37231;SDS011;23125;48.156;15.954;2023-05-07T10:16:44;15.30;;;11.98;;
37231;SDS011;23125;48.156;15.954;2023-05-07T10:19:13;14.32;;;11.18;;
37231;SDS011;23125;48.156;15.954;2023-05-07T10:21:43;13.48;;;11.38;;
37231;SDS011;23125;48.156;15.954;2023-05-07T10:24:20;12.75;;;11.32;;
37231;SDS011;23125;48.156;15.954;2023-05-07T10:26:52;15.55;;;12.00;;
37231;SDS011;23125;48.156;15.954;2023-05-07T10:32:19;14.07;;;11.23;;
37231;SDS011;23125;48.156;15.954;2023-05-07T10:35:02;12.65;;;9.80;;
37231;SDS011;23125;48.156;15.954;2023-05-07T10:37:32;14.57;;;12.25;;
37231;SDS011;23125;48.156;15.954;2023-05-07T10:39:58;14.95;;;11.40;;
37231;SDS011;23125;48.156;15.954;2023-05-07T10:42:24;14.55;;;11.40;;
37231;SDS011;23125;48.156;15.954;2023-05-07T10:44:50;13.63;;;11.05;;
37231;SDS011;23125;48.156;15.954;2023-05-07T10:47:16;14.02;;;11.55;;
37231;SDS011;23125;48.156;15.954;2023-05-07T10:52:13;11.95;;;10.32;;
37231;SDS011;23125;48.156;15.954;2023-05-07T10:54:46;14.48;;;11.15;;
37231;SDS011;23125;48.156;15.954;2023-05-07T10:59:56;12.50;;;10.43;;
37231;SDS011;23125;48.156;15.954;2023-05-07T11:02:22;13.45;;;10.95;;
37231;SDS011;23125;48.156;15.954;2023-05-07T11:05:18;12.70;;;10.48;;
37231;SDS011;23125;48.156;15.954;2023-05-07T11:07:53;15.25;;;11.57;;
37231;SDS011;23125;48.156;15.954;2023-05-07T11:10:21;13.90;;;11.75;;
37231;SDS011;23125;48.156;15.954;2023-05-07T11:12:47;14.10;;;11.43;;
37231;SDS011;23125;48.156;15.954;2023-05-07T11:15:32;12.98;;;10.85;;
37231;SDS011;23125;48.156;15.954;2023-05-07T11:18:00;12.13;;;10.20;;
37231;SDS011;23125;48.156;15.954;2023-05-07T11:28:29;12.73;;;11.40;;
37231;SDS011;23125;48.156;15.954;2023-05-07T11:30:57;13.90;;;11.02;;
37231;SDS011;23125;48.156;15.954;2023-05-07T11:33:23;13.15;;;10.95;;
37231;SDS011;23125;48.156;15.954;2023-05-07T11:35:54;15.95;;;11.75;;
37231;SDS011;23125;48.156;15.954;2023-05-07T11:38:21;14.15;;;12.02;;
37231;SDS011;23125;48.156;15.954;2023-05-07T11:40:50;14.77;;;11.95;;
37231;SDS011;23125;48.156;15.954;2023-05-07T11:43:18;14.13;;;11.98;;
37231;SDS011;23125;48.156;15.954;2023-05-07T11:45:45;13.70;;;10.57;;
37231;SDS011;23125;48.156;15.954;2023-05-07T11:48:15;12.90;;;11.45;;
37231;SDS011;23125;48.156;15.954;2023-05-07T11:50:51;14.52;;;11.57;;
37231;SDS011;23125;48.156;15.954;2023-05-07T11:53:18;12.60;;;10.85;;
37231;SDS011;23125;48.156;15.954;2023-05-07T11:55:45;12.15;;;9.90;;
37231;SDS011;23125;48.156;15.954;2023-05-07T11:58:12;11.40;;;9.50;;
37231;SDS011;23125;48.156;15.954;2023-05-07T12:00:49;12.93;;;10.50;;
37231;SDS011;23125;48.156;15.954;2023-05-07T12:03:16;13.23;;;11.50;;
37231;SDS011;23125;48.156;15.954;2023-05-07T12:05:43;13.15;;;10.40;;
37231;SDS011;23125;48.156;15.954;2023-05-07T12:08:16;13.07;;;10.07;;
37231;SDS011;23125;48.156;15.954;2023-05-07T12:10:44;13.93;;;11.02;;
37231;SDS011;23125;48.156;15.954;2023-05-07T12:13:17;12.23;;;9.68;;
37231;SDS011;23125;48.156;15.954;2023-05-07T12:15:44;12.50;;;10.50;;
37231;SDS011;23125;48.156;15.954;2023-05-07T12:18:13;11.70;;;10.20;;
37231;SDS011;23125;48.156;15.954;2023-05-07T12:20:40;11.40;;;9.27;;
37231;SDS011;23125;48.156;15.954;2023-05-07T12:23:06;13.07;;;10.10;;
37231;SDS011;23125;48.156;15.954;2023-05-07T12:25:35;11.52;;;9.82;;
37231;SDS011;23125;48.156;15.954;2023-05-07T12:28:02;11.15;;;9.80;;
37231;SDS011;23125;48.156;15.954;2023-05-07T12:30:32;11.13;;;9.20;;
37231;SDS011;23125;48.156;15.954;2023-05-07T12:33:02;9.82;;;8.65;;
37231;SDS011;23125;48.156;15.954;2023-05-07T12:35:29;11.60;;;8.50;;
37231;SDS011;23125;48.156;15.954;2023-05-07T12:37:56;10.90;;;9.25;;
37231;SDS011;23125;48.156;15.954;2023-05-07T12:40:34;11.50;;;8.80;;
37231;SDS011;23125;48.156;15.954;2023-05-07T12:43:04;13.05;;;8.65;;
37231;SDS011;23125;48.156;15.954;2023-05-07T12:45:30;10.65;;;8.73;;
37231;SDS011;23125;48.156;15.954;2023-05-07T12:47:57;9.35;;;7.88;;
37231;SDS011;23125;48.156;15.954;2023-05-07T12:50:30;10.02;;;8.32;;
37231;SDS011;23125;48.156;15.954;2023-05-07T12:52:58;12.43;;;8.98;;
37231;SDS011;23125;48.156;15.954;2023-05-07T12:55:24;12.65;;;9.20;;
37231;SDS011;23125;48.156;15.954;2023-05-07T12:57:51;9.13;;;8.20;;
37231;SDS011;23125;48.156;15.954;2023-05-07T13:00:31;12.00;;;9.40;;
37231;SDS011;23125;48.156;15.954;2023-05-07T13:02:58;11.00;;;7.85;;
37231;SDS011;23125;48.156;15.954;2023-05-07T13:05:24;8.82;;;7.75;;
37231;SDS011;23125;48.156;15.954;2023-05-07T13:07:53;9.25;;;8.32;;
37231;SDS011;23125;48.156;15.954;2023-05-07T13:10:23;9.65;;;7.97;;
37231;SDS011;23125;48.156;15.954;2023-05-07T13:12:49;11.43;;;8.18;;
37231;SDS011;23125;48.156;15.954;2023-05-07T13:15:17;10.02;;;7.50;;
37231;SDS011;23125;48.156;15.954;2023-05-07T13:17:43;10.60;;;8.02;;
37231;SDS011;23125;48.156;15.954;2023-05-07T13:20:09;11.68;;;8.18;;
37231;SDS011;23125;48.156;15.954;2023-05-07T13:22:36;9.90;;;7.18;;
37231;SDS011;23125;48.156;15.954;2023-05-07T13:25:02;9.63;;;8.25;;
37231;SDS011;23125;48.156;15.954;2023-05-07T13:27:28;10.10;;;8.25;;
37231;SDS011;23125;48.156;15.954;2023-05-07T13:29:56;9.30;;;7.63;;
37231;SDS011;23125;48.156;15.954;2023-05-07T13:32:22;8.63;;;7.53;;
37231;SDS011;23125;48.156;15.954;2023-05-07T13:34:48;9.20;;;7.22;;
37231;SDS011;23125;48.156;15.954;2023-05-07T13:37:14;8.30;;;7.00;;
37231;SDS011;23125;48.156;15.954;2023-05-07T13:39:40;8.80;;;7.20;;
37231;SDS011;23125;48.156;15.954;2023-05-07T13:42:08;9.43;;;7.75;;
37231;SDS011;23125;48.156;15.954;2023-05-07T13:44:34;10.20;;;7.40;;
37231;SDS011;23125;48.156;15.954;2023-05-07T13:47:00;10.10;;;8.02;;
37231;SDS011;23125;48.156;15.954;2023-05-07T13:49:26;10.45;;;7.88;;
37231;SDS011;23125;48.156;15.954;2023-05-07T13:51:52;9.02;;;7.50;;
37231;SDS011;23125;48.156;15.954;2023-05-07T13:54:17;8.80;;;6.82;;
37231;SDS011;23125;48.156;15.954;2023-05-07T13:56:43;8.68;;;6.97;;
37231;SDS011;23125;48.156;15.954;2023-05-07T13:59:09;7.65;;;6.30;;
37231;SDS011;23125;48.156;15.954;2023-05-07T14:01:35;7.85;;;6.90;;
37231;SDS011;23125;48.156;15.954;2023-05-07T14:04:01;8.80;;;6.93;;
37231;SDS011;23125;48.156;15.954;2023-05-07T14:06:27;7.03;;;6.10;;
37231;SDS011;23125;48.156;15.954;2023-05-07T14:08:52;11.60;;;7.40;;
37231;SDS011;23125;48.156;15.954;2023-05-07T14:11:18;7.80;;;6.55;;
37231;SDS011;23125;48.156;15.954;2023-05-07T14:13:44;8.18;;;7.00;;
37231;SDS011;23125;48.156;15.954;2023-05-07T14:16:10;8.73;;;6.75;;
37231;SDS011;23125;48.156;15.954;2023-05-07T14:18:36;7.65;;;6.47;;
37231;SDS011;23125;48.156;15.954;2023-05-07T14:21:04;8.02;;;6.82;;
37231;SDS011;23125;48.156;15.954;2023-05-07T14:23:31;8.68;;;6.80;;
37231;SDS011;23125;48.156;15.954;2023-05-07T14:25:57;8.73;;;6.70;;
37231;SDS011;23125;48.156;15.954;2023-05-07T14:28:23;6.75;;;5.68;;
37231;SDS011;23125;48.156;15.954;2023-05-07T14:30:49;6.70;;;5.72;;
37231;SDS011;23125;48.156;15.954;2023-05-07T14:33:15;7.22;;;5.70;;
37231;SDS011;23125;48.156;15.954;2023-05-07T14:35:42;8.25;;;6.35;;
37231;SDS011;23125;48.156;15.954;2023-05-07T14:38:13;8.00;;;6.10;;
37231;SDS011;23125;48.156;15.954;2023-05-07T14:40:39;9.52;;;6.30;;